createdAt,value
2019-01-18T00:01:44.107Z,1.27
2019-01-18T00:04:17.133Z,2.63
2019-01-18T00:06:49.155Z,1.90
2019-01-18T00:09:21.678Z,4.87
2019-01-18T00:11:54.398Z,1.30
2019-01-18T00:14:26.851Z,1.50
2019-01-18T00:16:59.874Z,1.20
2019-01-18T00:19:32.094Z,2.53
2019-01-18T00:22:05.695Z,0.30
2019-01-18T00:24:37.977Z,1.37
2019-01-18T00:27:10.433Z,1.73
2019-01-18T00:29:43.264Z,4.33
2019-01-18T00:32:15.151Z,2.73
2019-01-18T00:34:47.297Z,6.17
2019-01-18T00:37:19.266Z,1.80
2019-01-18T00:39:51.565Z,4.07
2019-01-18T00:42:23.489Z,3.17
2019-01-18T00:44:55.660Z,1.83
2019-01-18T00:47:27.620Z,1.73
2019-01-18T00:50:00.533Z,1.07
2019-01-18T00:52:33.217Z,3.33
2019-01-18T00:55:05.823Z,0.87
2019-01-18T00:57:38.457Z,2.00
2019-01-18T01:00:21.325Z,1.40
2019-01-18T01:02:55.003Z,1.53
2019-01-18T01:05:28.904Z,1.23
2019-01-18T01:08:02.657Z,0.60
2019-01-18T01:10:36.609Z,4.30
2019-01-18T01:13:09.302Z,1.43
2019-01-18T01:15:41.453Z,1.03
2019-01-18T01:18:13.614Z,3.43
2019-01-18T01:20:45.414Z,2.13
2019-01-18T01:23:17.874Z,3.23
2019-01-18T01:25:50.247Z,3.27
2019-01-18T01:28:23.386Z,3.23
2019-01-18T01:30:56.044Z,3.70
2019-01-18T01:33:28.301Z,2.60
2019-01-18T01:36:00.131Z,2.80
2019-01-18T01:38:32.341Z,2.10
2019-01-18T01:41:04.663Z,2.00
2019-01-18T01:43:37.215Z,2.43
2019-01-18T01:46:09.842Z,1.23
2019-01-18T01:48:41.652Z,1.80
2019-01-18T01:51:13.998Z,2.13
2019-01-18T01:53:45.884Z,0.73
2019-01-18T01:56:17.843Z,2.90
2019-01-18T01:58:51.099Z,10.77
2019-01-18T02:01:23.323Z,4.30
2019-01-18T02:03:55.512Z,2.90
2019-01-18T02:06:27.722Z,1.27
2019-01-18T02:09:00.049Z,4.20
2019-01-18T02:11:32.669Z,0.93
2019-01-18T02:14:06.017Z,4.00
2019-01-18T02:16:38.102Z,3.23
2019-01-18T02:19:10.706Z,2.07
2019-01-18T02:21:43.052Z,2.93
2019-01-18T02:24:15.772Z,3.17
2019-01-18T02:26:48.358Z,3.70
2019-01-18T02:29:21.338Z,1.90
2019-01-18T02:31:53.340Z,3.23
2019-01-18T02:34:25.874Z,3.17
2019-01-18T02:36:58.231Z,2.83
2019-01-18T02:39:30.099Z,3.30
2019-01-18T02:42:02.506Z,3.50
2019-01-18T02:44:35.143Z,4.10
2019-01-18T02:47:07.292Z,3.07
2019-01-18T02:49:39.798Z,3.23
2019-01-18T02:52:11.985Z,0.20
2019-01-18T02:54:44.934Z,1.20
2019-01-18T02:57:18.341Z,3.23
2019-01-18T02:59:50.649Z,3.97
2019-01-18T03:02:23.669Z,3.20
2019-01-18T03:04:55.593Z,1.87
2019-01-18T03:07:28.239Z,3.07
2019-01-18T03:10:01.016Z,2.27
2019-01-18T03:12:33.624Z,4.30
2019-01-18T03:15:06.183Z,1.83
2019-01-18T03:17:38.881Z,3.50
2019-01-18T03:20:14.003Z,5.13
2019-01-18T03:22:45.976Z,5.43
2019-01-18T03:25:24.781Z,7.53
2019-01-18T03:27:58.845Z,3.47
2019-01-18T03:30:30.797Z,2.70
2019-01-18T03:33:03.643Z,6.50
2019-01-18T03:35:36.481Z,0.97
2019-01-18T03:38:08.740Z,2.90
2019-01-18T03:40:42.531Z,2.93
2019-01-18T03:43:15.155Z,2.53
2019-01-18T03:45:47.161Z,1.83
2019-01-18T03:48:21.523Z,4.33
2019-01-18T03:50:53.398Z,4.47
2019-01-18T03:53:27.798Z,4.10
2019-01-18T03:55:59.843Z,1.13
2019-01-18T03:58:31.258Z,1.10
2019-01-18T04:01:02.993Z,4.43
2019-01-18T04:03:35.154Z,3.43
2019-01-18T04:06:07.095Z,4.40
2019-01-18T04:08:39.470Z,3.60
2019-01-18T04:11:11.669Z,1.00
2019-01-18T04:13:43.535Z,5.93
2019-01-18T04:16:15.793Z,5.30
2019-01-18T04:18:48.269Z,4.53
2019-01-18T04:21:20.549Z,5.67
2019-01-18T04:23:52.710Z,1.57
2019-01-18T04:26:25.116Z,2.43
2019-01-18T04:28:58.060Z,2.97
2019-01-18T04:31:30.921Z,3.80
2019-01-18T04:34:03.468Z,7.07
2019-01-18T04:36:35.677Z,2.43
2019-01-18T04:39:09.436Z,1.23
2019-01-18T04:41:42.349Z,2.17
2019-01-18T04:44:14.894Z,2.97
2019-01-18T04:46:47.022Z,2.83
2019-01-18T04:49:19.630Z,1.40
2019-01-18T04:51:51.954Z,3.57
2019-01-18T04:54:25.091Z,1.20
2019-01-18T04:56:57.686Z,3.40
2019-01-18T04:59:30.255Z,3.10
2019-01-18T05:02:02.505Z,1.70
2019-01-18T05:04:34.920Z,6.30
2019-01-18T05:07:07.255Z,2.80
2019-01-18T05:09:40.000Z,2.60
2019-01-18T05:12:12.058Z,1.80
2019-01-18T05:14:44.084Z,3.83
2019-01-18T05:17:16.955Z,1.63
2019-01-18T05:19:49.721Z,1.43
2019-01-18T05:22:22.071Z,3.63
2019-01-18T05:24:54.733Z,6.20
2019-01-18T05:27:27.372Z,3.70
2019-01-18T05:29:59.748Z,4.73
2019-01-18T05:32:31.666Z,3.97
2019-01-18T05:35:04.022Z,2.97
2019-01-18T05:37:37.466Z,3.33
2019-01-18T05:40:12.759Z,2.30
2019-01-18T05:42:45.020Z,1.33
2019-01-18T05:45:19.446Z,3.43
2019-01-18T05:47:51.831Z,4.03
2019-01-18T05:50:29.798Z,2.70
2019-01-18T05:53:05.926Z,1.93
2019-01-18T05:55:37.856Z,1.90
2019-01-18T05:58:10.750Z,5.80
2019-01-18T06:00:46.685Z,4.20
2019-01-18T06:03:18.612Z,2.77
2019-01-18T06:05:50.657Z,3.70
2019-01-18T06:08:23.179Z,2.60
2019-01-18T06:10:55.536Z,5.97
2019-01-18T06:13:28.434Z,1.37
2019-01-18T06:16:00.764Z,3.30
2019-01-18T06:18:33.045Z,2.90
2019-01-18T06:21:05.443Z,3.57
2019-01-18T06:23:37.618Z,1.23
2019-01-18T06:26:10.367Z,6.47
2019-01-18T06:28:42.764Z,1.23
2019-01-18T06:31:15.447Z,4.50
2019-01-18T06:33:47.367Z,2.07
2019-01-18T06:36:19.674Z,2.10
2019-01-18T06:38:53.047Z,2.90
2019-01-18T06:41:32.018Z,3.17
2019-01-18T06:44:05.177Z,6.30
2019-01-18T06:46:37.186Z,2.70
2019-01-18T06:49:10.383Z,2.00
2019-01-18T06:51:43.863Z,1.90
2019-01-18T06:54:15.798Z,4.90
2019-01-18T06:56:48.385Z,5.30
2019-01-18T06:59:21.043Z,1.80
2019-01-18T07:01:53.797Z,4.97
2019-01-18T07:04:25.877Z,1.73
2019-01-18T07:06:57.802Z,1.43
2019-01-18T07:09:30.644Z,3.83
2019-01-18T07:12:03.309Z,5.03
2019-01-18T07:14:35.097Z,39.20
2019-01-18T07:17:07.249Z,3.57
2019-01-18T07:19:39.154Z,1.83
2019-01-18T07:22:11.824Z,2.70
2019-01-18T07:24:45.028Z,1.70
2019-01-18T07:27:18.322Z,3.10
2019-01-18T07:29:50.152Z,3.20
2019-01-18T07:32:22.590Z,5.67
2019-01-18T07:34:55.142Z,2.73
2019-01-18T07:37:27.717Z,2.17
2019-01-18T07:40:00.719Z,2.50
2019-01-18T07:42:32.922Z,2.60
2019-01-18T07:45:06.437Z,4.40
2019-01-18T07:47:38.988Z,4.53
2019-01-18T07:50:19.793Z,1.73
2019-01-18T07:52:46.933Z,5.87
2019-01-18T07:55:19.505Z,5.23
2019-01-18T07:57:53.377Z,2.13
2019-01-18T08:00:30.602Z,5.67
2019-01-18T08:03:04.751Z,2.33
2019-01-18T08:05:37.370Z,1.80
2019-01-18T08:08:09.899Z,5.43
2019-01-18T08:10:42.470Z,2.77
2019-01-18T08:13:15.153Z,7.73
2019-01-18T08:15:47.096Z,3.70
2019-01-18T08:18:19.786Z,2.77
2019-01-18T08:20:51.984Z,2.23
2019-01-18T08:23:25.033Z,0.90
2019-01-18T08:25:57.129Z,3.20
2019-01-18T08:28:29.713Z,2.67
2019-01-18T08:31:02.269Z,1.93
2019-01-18T08:33:34.134Z,3.40
2019-01-18T08:36:06.666Z,3.30
2019-01-18T08:38:39.224Z,1.73
2019-01-18T08:41:11.088Z,0.80
2019-01-18T08:43:43.602Z,1.47
2019-01-18T08:46:17.798Z,1.50
2019-01-18T08:48:50.251Z,4.50
2019-01-18T08:51:22.675Z,3.57
2019-01-18T08:53:55.375Z,5.10
2019-01-18T08:56:28.444Z,5.23
2019-01-18T08:59:01.100Z,3.97
2019-01-18T09:01:35.844Z,1.33
2019-01-18T09:04:06.641Z,2.63
2019-01-18T09:06:38.606Z,2.43
2019-01-18T09:09:12.504Z,3.37
2019-01-18T09:11:46.559Z,7.67
2019-01-18T09:14:19.587Z,2.20
2019-01-18T09:16:53.356Z,5.10
2019-01-18T09:19:26.551Z,6.10
2019-01-18T09:21:58.379Z,6.13
2019-01-18T09:24:31.403Z,5.80
2019-01-18T09:27:03.898Z,5.43
2019-01-18T09:29:36.397Z,7.10
2019-01-18T09:32:09.543Z,5.10
2019-01-18T09:34:42.741Z,4.23
2019-01-18T09:37:15.807Z,5.83
2019-01-18T09:39:48.574Z,2.17
2019-01-18T09:42:22.638Z,6.87
2019-01-18T09:44:56.007Z,1.23
2019-01-18T09:47:28.298Z,4.43
2019-01-18T09:50:00.258Z,4.77
2019-01-18T09:52:32.606Z,34.20
2019-01-18T09:55:05.145Z,3.53
2019-01-18T09:57:37.628Z,6.17
2019-01-18T10:00:15.973Z,4.63
2019-01-18T10:02:56.053Z,5.70
2019-01-18T10:05:29.273Z,4.73
2019-01-18T10:08:01.264Z,4.37
2019-01-18T10:10:34.039Z,4.77
2019-01-18T10:13:08.560Z,3.63
2019-01-18T10:15:46.708Z,9.40
2019-01-18T10:18:19.653Z,5.77
2019-01-18T10:20:52.477Z,4.97
2019-01-18T10:23:25.017Z,5.30
2019-01-18T10:25:57.258Z,5.43
2019-01-18T10:28:29.872Z,5.30
2019-01-18T10:31:02.574Z,5.57
2019-01-18T10:33:34.832Z,9.23
2019-01-18T10:36:07.174Z,7.37
2019-01-18T10:38:39.537Z,9.00
2019-01-18T10:41:11.464Z,6.67
2019-01-18T10:43:44.073Z,1.90
2019-01-18T10:46:16.391Z,6.57
2019-01-18T10:48:49.059Z,4.40
2019-01-18T10:51:21.534Z,4.67
2019-01-18T10:53:54.275Z,2.77
2019-01-18T10:56:26.478Z,4.13
2019-01-18T10:59:00.076Z,6.90
2019-01-18T11:01:34.037Z,3.13
2019-01-18T11:04:06.671Z,5.78
2019-01-18T11:06:39.443Z,3.77
2019-01-18T11:09:11.919Z,3.83
2019-01-18T11:11:44.439Z,5.30
2019-01-18T11:14:17.151Z,6.70
2019-01-18T11:16:50.551Z,6.13
2019-01-18T11:19:22.808Z,7.93
2019-01-18T11:21:54.769Z,4.20
2019-01-18T11:24:27.681Z,4.90
2019-01-18T11:26:59.914Z,4.53
2019-01-18T11:29:31.733Z,2.67
2019-01-18T11:32:04.631Z,1.90
2019-01-18T11:34:37.414Z,6.83
2019-01-18T11:37:10.918Z,6.40
2019-01-18T11:39:43.924Z,2.83
2019-01-18T11:42:16.299Z,7.17
2019-01-18T11:44:49.897Z,5.42
2019-01-18T11:47:22.024Z,6.10
2019-01-18T11:49:54.274Z,7.13
2019-01-18T11:52:26.725Z,1.90
2019-01-18T11:54:59.294Z,5.00
2019-01-18T11:57:31.799Z,5.63
2019-01-18T12:00:04.241Z,7.13
2019-01-18T12:02:37.366Z,5.10
2019-01-18T12:05:09.620Z,8.63
2019-01-18T12:07:42.832Z,12.93
2019-01-18T12:10:19.162Z,4.57
2019-01-18T12:12:51.662Z,6.80
2019-01-18T12:15:23.704Z,5.65
2019-01-18T12:17:56.570Z,5.77
2019-01-18T12:20:40.172Z,7.47
2019-01-18T12:23:12.241Z,5.30
2019-01-18T12:25:44.410Z,8.15
2019-01-18T12:28:16.845Z,6.33
2019-01-18T12:30:49.238Z,7.40
2019-01-18T12:33:21.960Z,6.20
2019-01-18T12:35:53.808Z,6.13
2019-01-18T12:38:26.420Z,8.10
2019-01-18T12:41:00.734Z,8.88
2019-01-18T12:43:33.799Z,7.80
2019-01-18T12:46:06.433Z,6.30
2019-01-18T12:48:39.448Z,11.85
2019-01-18T12:51:16.739Z,5.57
2019-01-18T12:53:48.518Z,4.00
2019-01-18T12:56:21.248Z,3.20
2019-01-18T12:58:56.627Z,2.33
2019-01-18T13:01:28.091Z,3.50
2019-01-18T13:04:00.960Z,4.43
2019-01-18T13:06:33.252Z,4.63
2019-01-18T13:09:07.789Z,4.70
2019-01-18T13:11:40.551Z,7.03
2019-01-18T13:14:12.888Z,3.33
2019-01-18T13:16:48.101Z,6.60
2019-01-18T13:19:26.340Z,7.47
2019-01-18T13:21:59.337Z,9.30
2019-01-18T13:24:32.060Z,5.70
2019-01-18T13:27:04.916Z,7.50
2019-01-18T13:29:37.281Z,4.50
2019-01-18T13:32:10.584Z,4.60
2019-01-18T13:34:43.342Z,5.70
2019-01-18T13:37:16.107Z,8.25
2019-01-18T13:39:48.513Z,6.67
2019-01-18T13:42:20.359Z,6.60
2019-01-18T13:44:52.133Z,4.83
2019-01-18T13:47:24.346Z,6.53
2019-01-18T13:49:56.396Z,8.47
2019-01-18T13:52:29.025Z,6.47
2019-01-18T13:55:02.130Z,7.07
2019-01-18T13:57:36.160Z,7.30
2019-01-18T14:00:10.241Z,7.35
2019-01-18T14:02:48.239Z,2.72
2019-01-18T14:05:16.437Z,5.40
2019-01-18T14:07:48.424Z,5.43
2019-01-18T14:10:27.394Z,21.27
2019-01-18T14:13:00.079Z,7.27
2019-01-18T14:15:32.478Z,6.73
2019-01-18T14:18:06.520Z,6.97
2019-01-18T14:20:39.836Z,5.10
2019-01-18T14:23:12.026Z,3.30
2019-01-18T14:25:45.204Z,9.68
2019-01-18T14:28:17.425Z,6.43
2019-01-18T14:30:49.835Z,2.83
2019-01-18T14:33:22.454Z,4.77
2019-01-18T14:35:55.954Z,7.23
2019-01-18T14:38:27.963Z,6.77
2019-01-18T14:41:00.432Z,7.55
2019-01-18T14:43:32.374Z,6.73
2019-01-18T14:46:05.133Z,7.37
2019-01-18T14:48:36.987Z,6.50
2019-01-18T14:51:09.258Z,7.13
2019-01-18T14:53:41.413Z,6.50
2019-01-18T14:56:14.461Z,7.03
2019-01-18T14:58:48.506Z,7.43
2019-01-18T15:01:25.450Z,6.57
2019-01-18T15:03:58.120Z,5.23
2019-01-18T15:06:30.963Z,9.13
2019-01-18T15:09:04.900Z,5.87
2019-01-18T15:11:39.192Z,6.17
2019-01-18T15:14:11.050Z,8.00
2019-01-18T15:16:43.154Z,7.53
2019-01-18T15:19:15.007Z,8.63
2019-01-18T15:21:47.546Z,6.20
2019-01-18T15:24:19.990Z,6.37
2019-01-18T15:26:52.860Z,9.97
2019-01-18T15:29:25.406Z,9.40
2019-01-18T15:31:57.882Z,9.23
2019-01-18T15:34:31.136Z,7.57
2019-01-18T15:37:04.110Z,9.37
2019-01-18T15:39:37.475Z,7.17
2019-01-18T15:42:11.097Z,9.83
2019-01-18T15:44:43.313Z,8.70
2019-01-18T15:47:15.510Z,7.73
2019-01-18T15:49:48.298Z,7.83
2019-01-18T15:52:21.131Z,7.70
2019-01-18T15:54:53.871Z,4.33
2019-01-18T15:57:27.367Z,5.87
2019-01-18T16:00:00.228Z,5.50
2019-01-18T16:02:34.084Z,6.37
2019-01-18T16:05:08.228Z,8.50
2019-01-18T16:07:40.234Z,8.40
2019-01-18T16:10:13.808Z,6.77
2019-01-18T16:12:49.481Z,6.33
2019-01-18T16:15:23.643Z,7.03
2019-01-18T16:17:56.383Z,11.00
2019-01-18T16:20:28.986Z,9.83
2019-01-18T16:23:00.920Z,6.57
2019-01-18T16:25:33.353Z,7.47
2019-01-18T16:28:06.030Z,8.48
2019-01-18T16:30:38.259Z,7.43
2019-01-18T16:33:12.469Z,9.13
2019-01-18T16:35:44.679Z,9.83
2019-01-18T16:38:17.570Z,10.03
2019-01-18T16:40:50.090Z,7.10
2019-01-18T16:43:33.951Z,7.60
2019-01-18T16:46:06.768Z,7.40
2019-01-18T16:48:40.815Z,4.40
2019-01-18T16:51:13.999Z,8.80
2019-01-18T16:53:46.805Z,8.50
2019-01-18T16:56:20.335Z,8.47
2019-01-18T16:58:53.335Z,9.13
2019-01-18T17:01:26.821Z,7.40
2019-01-18T17:04:02.252Z,7.93
2019-01-18T17:06:35.101Z,9.27
2019-01-18T17:09:12.328Z,28.20
2019-01-18T17:11:44.752Z,10.23
2019-01-18T17:14:17.441Z,11.60
2019-01-18T17:16:49.863Z,10.43
2019-01-18T17:19:22.190Z,8.20
2019-01-18T17:21:56.608Z,9.70
2019-01-18T17:24:31.436Z,11.37
2019-01-18T17:27:03.997Z,9.70
2019-01-18T17:29:36.518Z,12.80
2019-01-18T17:32:09.094Z,11.47
2019-01-18T17:34:42.055Z,10.10
2019-01-18T17:37:21.010Z,11.17
2019-01-18T17:40:15.348Z,10.07
2019-01-18T17:43:09.440Z,8.60
2019-01-18T17:46:24.092Z,9.40
2019-01-18T17:49:41.741Z,11.30
2019-01-18T17:53:02.515Z,8.97
2019-01-18T17:56:31.096Z,9.93
2019-01-18T17:59:42.806Z,7.15
2019-01-18T18:02:56.994Z,10.70
2019-01-18T18:06:16.453Z,12.07
2019-01-18T18:09:01.538Z,10.13
2019-01-18T18:12:09.143Z,9.25
2019-01-18T18:15:29.870Z,5.97
2019-01-18T18:19:09.755Z,11.37
2019-01-18T18:23:08.941Z,10.70
2019-01-18T18:26:45.415Z,4.20
2019-01-18T18:30:10.028Z,10.07
2019-01-18T18:33:35.145Z,7.57
2019-01-18T18:36:45.927Z,15.10
2019-01-18T18:40:00.045Z,11.83
2019-01-18T18:43:25.999Z,7.30
2019-01-18T18:47:04.058Z,12.47
2019-01-18T18:50:51.739Z,8.13
2019-01-18T18:54:06.334Z,10.27
2019-01-18T18:57:31.473Z,8.97
2019-01-18T19:00:40.757Z,9.90
2019-01-18T19:04:25.318Z,8.97
2019-01-18T19:07:52.971Z,7.70
2019-01-18T19:11:24.092Z,3.67
2019-01-18T19:15:01.685Z,9.73
2019-01-18T19:18:21.611Z,8.33
2019-01-18T19:22:06.276Z,8.83
2019-01-18T19:25:27.356Z,11.27
2019-01-18T19:28:30.606Z,8.93
2019-01-18T19:32:07.445Z,10.27
2019-01-18T19:35:33.816Z,9.17
2019-01-18T19:38:47.224Z,10.37
2019-01-18T19:42:19.941Z,10.70
2019-01-18T19:46:06.535Z,11.33
2019-01-18T19:49:23.586Z,11.13
2019-01-18T19:53:01.825Z,9.80
2019-01-18T19:56:23.104Z,14.37
2019-01-18T20:00:00.461Z,15.33
2019-01-18T20:03:48.550Z,11.33
2019-01-18T20:07:19.256Z,10.30
2019-01-18T20:10:39.032Z,16.10
2019-01-18T20:14:27.890Z,13.23
2019-01-18T20:17:52.933Z,10.47
2019-01-18T20:21:21.985Z,10.07
2019-01-18T20:24:57.198Z,11.73
2019-01-18T20:28:23.310Z,13.93
2019-01-18T20:31:35.355Z,11.47
2019-01-18T20:35:03.771Z,14.10
2019-01-18T20:38:20.430Z,13.47
2019-01-18T20:41:45.602Z,17.83
2019-01-18T20:45:09.107Z,14.17
2019-01-18T20:48:12.315Z,6.63
2019-01-18T20:51:23.994Z,22.47
2019-01-18T20:54:58.765Z,48.17
2019-01-18T20:58:15.395Z,40.37
2019-01-18T21:01:48.722Z,21.30
2019-01-18T21:05:06.819Z,18.27
2019-01-18T21:08:40.748Z,37.23
2019-01-18T21:12:29.891Z,29.50
2019-01-18T21:15:39.257Z,25.80
2019-01-18T21:18:54.163Z,17.53
2019-01-18T21:22:11.094Z,19.47
2019-01-18T21:25:58.652Z,25.93
2019-01-18T21:29:40.469Z,18.87
2019-01-18T21:33:16.066Z,33.73
2019-01-18T21:36:41.042Z,12.60
2019-01-18T21:40:23.869Z,32.53
2019-01-18T21:44:10.483Z,16.57
2019-01-18T21:47:32.503Z,20.77
2019-01-18T21:50:49.914Z,19.27
2019-01-18T21:53:40.102Z,17.33
2019-01-18T21:57:23.743Z,24.70
2019-01-18T22:00:26.784Z,26.53
2019-01-18T22:03:51.822Z,18.90
2019-01-18T22:06:58.848Z,16.43
2019-01-18T22:10:20.301Z,17.60
2019-01-18T22:13:40.117Z,17.33
2019-01-18T22:16:59.882Z,33.17
2019-01-18T22:20:24.499Z,19.10
2019-01-18T22:23:35.133Z,39.00
2019-01-18T22:26:47.651Z,27.20
2019-01-18T22:30:10.230Z,27.50
2019-01-18T22:33:14.564Z,23.50
2019-01-18T22:36:42.187Z,14.77
2019-01-18T22:39:55.362Z,29.93
2019-01-18T22:43:16.972Z,25.97
2019-01-18T22:46:27.879Z,26.00
2019-01-18T22:49:26.873Z,26.67
2019-01-18T22:52:36.930Z,22.40
2019-01-18T22:55:58.234Z,15.97
2019-01-18T22:59:25.652Z,38.20
2019-01-18T23:02:55.470Z,23.70
2019-01-18T23:06:33.532Z,40.87
2019-01-18T23:10:07.018Z,36.67
2019-01-18T23:13:57.034Z,35.50
2019-01-18T23:17:28.902Z,29.50
2019-01-18T23:21:13.626Z,34.97
2019-01-18T23:24:46.468Z,24.03
2019-01-18T23:28:15.452Z,36.90
2019-01-18T23:31:18.285Z,22.73
2019-01-18T23:34:30.409Z,33.90
2019-01-18T23:37:40.050Z,33.07
2019-01-18T23:41:20.319Z,26.23
2019-01-18T23:44:28.228Z,27.27
2019-01-18T23:49:55.494Z,24.40
2019-01-18T23:53:01.269Z,38.77
2019-01-18T23:56:18.694Z,25.50
2019-01-18T23:59:59.249Z,22.43
